createdAt,value
2022-12-19T00:01:22.832Z,28.9
2022-12-19T00:06:48.167Z,28.9
2022-12-19T00:12:19.110Z,28.8
2022-12-19T00:17:58.799Z,28.8
2022-12-19T00:23:29.736Z,28.8
2022-12-19T00:29:07.652Z,28.7
2022-12-19T00:34:52.999Z,28.6
2022-12-19T00:40:36.343Z,28.6
2022-12-19T00:46:20.244Z,28.6
2022-12-19T00:51:45.688Z,28.5
2022-12-19T00:57:31.822Z,28.4
2022-12-19T01:03:08.986Z,28.4
2022-12-19T01:09:40.311Z,28.4
2022-12-19T01:15:37.079Z,28.3
2022-12-19T01:21:35.669Z,28.3
2022-12-19T01:27:24.247Z,28.3
2022-12-19T01:33:23.811Z,28.2
2022-12-19T01:38:58.254Z,28.1
2022-12-19T01:44:07.197Z,28.1
2022-12-19T01:49:26.570Z,28.1
2022-12-19T01:54:55.379Z,28
2022-12-19T02:00:30.931Z,28
2022-12-19T02:06:11.636Z,28.1
2022-12-19T02:12:09.402Z,28.8
2022-12-19T02:17:19.893Z,29.5
2022-12-19T02:23:06.861Z,30.1
2022-12-19T02:28:49.793Z,30.6
2022-12-19T02:34:44.602Z,31.1
2022-12-19T02:40:28.379Z,31.6
2022-12-19T02:46:04.885Z,32
2022-12-19T02:51:59.860Z,32.4
2022-12-19T02:57:40.514Z,32.9
2022-12-19T03:03:17.341Z,33.5
2022-12-19T03:09:01.229Z,34.1
2022-12-19T03:14:46.490Z,34.6
2022-12-19T03:20:25.327Z,35
2022-12-19T03:26:01.980Z,35.2
2022-12-19T03:31:40.234Z,35.4
2022-12-19T03:37:20.409Z,35.6
2022-12-19T03:42:44.248Z,35.7
2022-12-19T03:48:24.999Z,35.8
2022-12-19T03:54:06.726Z,35.9
2022-12-19T03:59:29.540Z,36
2022-12-19T04:05:08.500Z,36
2022-12-19T04:10:47.891Z,36.1
2022-12-19T04:16:26.075Z,36.1
2022-12-19T04:21:54.884Z,36.1
2022-12-19T04:27:23.432Z,36.1
2022-12-19T04:32:33.037Z,36.1
2022-12-19T04:38:12.283Z,36.1
2022-12-19T04:43:51.141Z,36.1
2022-12-19T04:49:35.539Z,36.1
2022-12-19T04:55:16.032Z,36.1
2022-12-19T05:00:54.988Z,36.1
2022-12-19T05:06:40.232Z,36
2022-12-19T05:12:25.220Z,35.9
2022-12-19T05:17:34.706Z,35.9
2022-12-19T05:22:59.231Z,35.9
2022-12-19T05:28:40.501Z,35.8
2022-12-19T05:34:19.780Z,35.8
2022-12-19T05:39:57.845Z,35.8
2022-12-19T05:45:37.563Z,35.7
2022-12-19T05:51:25.027Z,35.6
2022-12-19T05:57:06.649Z,35.6
2022-12-19T06:02:47.043Z,35.5
2022-12-19T06:08:27.599Z,35.4
2022-12-19T06:14:13.242Z,35.3
2022-12-19T06:19:37.413Z,35.2
2022-12-19T06:25:09.804Z,35.1
2022-12-19T06:30:51.569Z,35.1
2022-12-19T06:37:08.404Z,35.1
2022-12-19T06:42:49.354Z,34.8
2022-12-19T06:48:28.130Z,34.8
2022-12-19T06:53:51.526Z,34.6
2022-12-19T06:59:31.639Z,34.5
2022-12-19T07:05:12.379Z,34.4
2022-12-19T07:10:52.098Z,34.4
2022-12-19T07:16:32.662Z,34.3
2022-12-19T07:22:11.495Z,34.2
2022-12-19T07:27:52.736Z,34.1
2022-12-19T07:33:00.895Z,34
2022-12-19T07:38:27.928Z,33.9
2022-12-19T07:44:12.362Z,33.9
2022-12-19T07:49:39.298Z,33.8
2022-12-19T07:55:17.126Z,33.8
2022-12-19T08:01:02.282Z,33.6
2022-12-19T08:06:44.469Z,33.6
2022-12-19T08:12:08.154Z,33.4
2022-12-19T08:18:28.171Z,33.4
2022-12-19T08:24:11.698Z,33.3
2022-12-19T08:29:55.513Z,33.3
2022-12-19T08:35:36.466Z,33.2
2022-12-19T08:41:20.286Z,33.1
2022-12-19T08:47:06.225Z,33
2022-12-19T08:52:45.607Z,32.9
2022-12-19T08:58:34.445Z,32.9
2022-12-19T09:06:52.660Z,32.8
2022-12-19T09:12:37.800Z,32.8
2022-12-19T09:18:24.442Z,32.7
2022-12-19T09:24:24.904Z,32.6
2022-12-19T09:30:44.724Z,32.6
2022-12-19T09:36:36.644Z,32.5
2022-12-19T09:42:29.008Z,32.4
2022-12-19T09:48:22.856Z,32.4
2022-12-19T09:54:11.122Z,32.3
2022-12-19T10:00:05.896Z,32.3
2022-12-19T10:08:18.074Z,32.3
2022-12-19T10:18:29.581Z,32.1
2022-12-19T10:24:57.663Z,32.1
2022-12-19T10:31:14.280Z,32.1
2022-12-19T10:37:57.148Z,32
2022-12-19T10:44:06.846Z,31.9
2022-12-19T10:49:53.672Z,31.9
2022-12-19T10:55:26.786Z,31.8
2022-12-19T11:00:56.043Z,31.8
2022-12-19T11:06:53.451Z,31.8
2022-12-19T11:34:11.981Z,31.7
2022-12-19T11:39:57.235Z,31.5
2022-12-19T11:46:21.333Z,31.4
2022-12-19T11:52:03.083Z,31.4
2022-12-19T11:58:28.641Z,31.4
2022-12-19T12:04:18.948Z,31.3
